Time;durP1;ratioP1;P1;durP2;ratioP2;P2;SDS_P1;SDS_P2;PMS_P1;PMS_P2;Temp;Humidity;BMP_temperature;BMP_pressure;BME280_temperature;BME280_humidity;BME280_pressure;Samples;Min_cycle;Max_cycle;Signal;HPM_P1;HPM_P2
2022/04/19 00:01:32;;;;;;;13.63;11.07;;;;;;;7.96;86.50;101451.53;10542698;28;20055;-61
2022/04/19 00:06:35;;;;;;;13.65;11.27;;;;;;;7.89;88.75;101459.66;10542460;28;20613;-61
2022/04/19 00:11:38;;;;;;;12.27;9.65;;;;;;;8.02;89.08;101455.69;10542864;28;20055;-61
2022/04/19 00:16:40;;;;;;;16.90;10.85;;;;;;;7.86;89.80;101447.56;10542076;28;20441;-61
2022/04/19 00:21:43;;;;;;;14.07;10.43;;;;;;;7.90;89.02;101453.50;10542485;28;20055;-61
2022/04/19 00:26:45;;;;;;;15.15;11.40;;;;;;;8.11;86.92;101460.56;10541849;28;20407;-61
2022/04/19 00:31:48;;;;;;;14.32;10.13;;;;;;;7.70;91.76;101444.66;10541710;28;20059;-61
2022/04/19 00:36:50;;;;;;;14.77;10.70;;;;;;;7.76;94.07;101443.56;10540820;28;20047;-61
2022/04/19 00:41:52;;;;;;;12.95;10.80;;;;;;;7.71;93.92;101438.53;10541279;28;20048;-61
2022/04/19 00:46:54;;;;;;;15.00;10.65;;;;;;;7.84;91.35;101428.50;10541570;28;20047;-61
2022/04/19 00:51:57;;;;;;;13.85;10.23;;;;;;;7.74;94.38;101429.75;10541517;28;20048;-61
2022/04/19 00:57:00;;;;;;;13.50;11.13;;;;;;;7.91;92.06;101429.16;10540610;28;20407;-61
2022/04/19 01:02:03;;;;;;;13.45;10.07;;;;;;;8.01;89.95;101425.28;10540580;28;20403;-61
2022/04/19 01:07:06;;;;;;;14.25;10.40;;;;;;;7.82;86.96;101425.13;10540933;28;20101;-61
2022/04/19 01:17:30;;;;;;;13.95;9.88;;;;;;;7.98;86.17;101436.72;10540120;28;20482;-61
2022/04/19 01:22:43;;;;;;;14.80;9.45;;;;;;;7.83;88.93;101437.22;10539331;28;20044;-61
2022/04/19 01:27:46;;;;;;;14.55;10.90;;;;;;;7.62;90.41;101436.25;10539733;28;20486;-61
2022/04/19 01:32:48;;;;;;;12.52;9.45;;;;;;;7.39;91.72;101432.66;10539497;28;20399;-61
2022/04/19 01:37:51;;;;;;;12.10;8.98;;;;;;;7.29;93.12;101423.47;10540439;28;20059;-61
2022/04/19 01:42:58;;;;;;;11.13;9.10;;;;;;;7.17;92.66;101431.69;10538943;28;20044;-61
2022/04/19 01:48:01;;;;;;;15.13;9.82;;;;;;;7.42;91.51;101426.50;10540306;28;20055;-61
2022/04/19 01:53:03;;;;;;;11.98;9.90;;;;;;;7.34;91.44;101418.94;10542056;28;20051;-61
2022/04/19 01:58:05;;;;;;;11.45;8.13;;;;;;;6.94;94.41;101420.25;10547816;28;20051;-61
2022/04/19 02:03:08;;;;;;;11.23;8.70;;;;;;;6.74;96.43;101418.31;10548148;28;20052;-61
2022/04/19 02:08:10;;;;;;;12.63;7.57;;;;;;;6.85;96.74;101416.19;10547937;28;20077;-61
2022/04/19 02:13:15;;;;;;;10.45;8.90;;;;;;;6.94;93.30;101420.25;10547639;28;20044;-61
2022/04/19 02:18:18;;;;;;;12.60;8.48;;;;;;;6.68;95.78;101418.50;10547570;28;20128;-61
2022/04/19 02:23:21;;;;;;;14.68;9.57;;;;;;;6.57;97.74;101418.81;10547265;28;20052;-61
2022/04/19 02:28:23;;;;;;;11.95;8.52;;;;;;;6.54;99.01;101418.94;10546947;28;20055;-61
2022/04/19 02:33:25;;;;;;;12.13;9.05;;;;;;;6.50;98.39;101417.31;10546082;28;20052;-61
2022/04/19 02:38:28;;;;;;;15.23;8.60;;;;;;;6.36;98.26;101414.28;10546810;28;20044;-61
2022/04/19 02:43:30;;;;;;;11.13;8.82;;;;;;;6.36;98.45;101414.28;10546498;28;20039;-61
2022/04/19 02:48:33;;;;;;;11.82;9.32;;;;;;;6.47;97.17;101405.25;10546438;28;20052;-61
2022/04/19 02:53:36;;;;;;;11.32;9.45;;;;;;;6.41;96.53;101400.22;10544879;28;20044;-61
2022/04/19 02:58:39;;;;;;;11.60;9.45;;;;;;;6.19;99.18;101404.38;10546123;28;20056;-61
2022/04/19 03:03:43;;;;;;;11.38;8.45;;;;;;;6.26;97.01;101404.13;10544593;28;20525;-61
2022/04/19 03:08:45;;;;;;;11.55;9.10;;;;;;;6.11;98.90;101404.59;10545687;28;20044;-61
2022/04/19 03:13:47;;;;;;;15.77;10.35;;;;;;;6.14;99.95;101404.50;10545222;28;20048;-60
2022/04/19 03:18:50;;;;;;;10.48;8.45;;;;;;;6.18;99.64;101398.31;10544470;28;20477;-61
2022/04/19 03:29:13;;;;;;;11.52;9.23;;;;;;;6.07;99.17;101398.63;10544969;28;20056;-61
2022/04/19 03:34:15;;;;;;;12.40;8.82;;;;;;;6.57;97.34;101397.16;10543814;28;20054;-61
2022/04/19 03:39:21;;;;;;;12.23;10.07;;;;;;;6.16;95.58;101401.88;10544370;28;20059;-61
2022/04/19 03:44:27;;;;;;;11.43;8.90;;;;;;;6.12;95.07;101396.75;10542866;28;20052;-61
2022/04/19 03:49:29;;;;;;;14.35;10.20;;;;;;;6.19;96.04;101404.38;10543261;28;20525;-61
2022/04/19 03:54:34;;;;;;;14.25;10.25;;;;;;;6.16;94.20;101402.72;10543602;28;20051;-61
2022/04/19 03:59:38;;;;;;;12.07;9.48;;;;;;;6.25;95.35;101402.44;10543891;28;20123;-61
2022/04/19 04:04:41;;;;;;;11.25;9.07;;;;;;;6.03;94.24;101409.16;10542590;28;20445;-61
2022/04/19 04:09:44;;;;;;;13.05;9.60;;;;;;;6.10;94.99;101402.88;10543253;28;20098;-61
2022/04/19 04:14:46;;;;;;;13.63;10.80;;;;;;;5.92;98.18;101418.09;10541337;28;20040;-61
2022/04/19 04:19:48;;;;;;;12.07;9.60;;;;;;;5.86;96.36;101420.00;10540815;28;20048;-61
2022/04/19 04:24:51;;;;;;;13.25;10.77;;;;;;;5.74;100.00;101416.84;10542384;28;20043;-61
2022/04/19 04:29:53;;;;;;;13.82;10.60;;;;;;;5.81;100.00;101416.69;10542276;28;20055;-61
2022/04/19 04:34:55;;;;;;;15.30;11.00;;;;;;;5.70;100.00;101423.03;10541232;28;20056;-61
2022/04/19 04:39:58;;;;;;;16.05;10.48;;;;;;;5.69;100.00;101430.84;10542103;28;20051;-61
2022/04/19 04:45:00;;;;;;;14.85;10.82;;;;;;;5.74;100.00;101434.19;10541713;28;20052;-61
2022/04/19 04:50:02;;;;;;;16.98;10.48;;;;;;;5.54;100.00;101429.50;10540826;28;20388;-61
2022/04/19 04:55:05;;;;;;;15.93;10.48;;;;;;;5.75;100.00;101431.53;10535565;22;20045;-61
2022/04/19 05:00:08;;;;;;;13.00;10.48;;;;;;;5.80;100.00;101425.34;10415666;28;20049;-61
2022/04/19 05:05:11;;;;;;;14.63;10.85;;;;;;;5.98;100.00;101431.84;10416609;28;20064;-61
2022/04/19 05:10:14;;;;;;;14.55;11.13;;;;;;;5.80;100.00;101431.44;10415323;28;20053;-61
2022/04/19 05:15:16;;;;;;;13.90;10.07;;;;;;;6.20;100.00;101432.06;10415639;28;20416;-61
2022/04/19 05:20:18;;;;;;;13.15;10.30;;;;;;;6.03;100.00;101433.41;10416195;28;20081;-61
2022/04/19 05:25:21;;;;;;;15.07;10.35;;;;;;;6.36;99.76;101435.94;10406685;28;20052;-61
2022/04/19 05:30:23;;;;;;;14.93;10.90;;;;;;;6.43;100.00;101441.81;10373791;28;20050;-61
2022/04/19 05:35:26;;;;;;;16.70;11.23;;;;;;;6.39;100.00;101438.44;10373705;28;20332;-61
2022/04/19 05:40:28;;;;;;;19.38;11.77;;;;;;;6.61;100.00;101435.22;10374904;28;20052;-61
2022/04/19 05:45:30;;;;;;;17.58;10.77;;;;;;;6.72;100.00;101435.69;10380318;28;20049;-61
2022/04/19 05:50:33;;;;;;;16.67;10.88;;;;;;;6.95;99.85;101427.19;10415510;28;20124;-61
2022/04/19 05:55:35;;;;;;;16.27;11.65;;;;;;;7.08;100.00;101419.81;10405421;28;20070;-61
2022/04/19 06:00:37;;;;;;;15.18;11.63;;;;;;;7.42;94.83;101431.72;10414192;28;20041;-61
2022/04/19 06:05:40;;;;;;;17.35;11.43;;;;;;;7.56;93.18;101436.44;10413267;28;20046;-61
2022/04/19 06:10:42;;;;;;;16.15;11.52;;;;;;;7.68;89.94;101437.78;10414843;28;20049;-61
2022/04/19 06:15:45;;;;;;;14.35;11.00;;;;;;;8.06;83.58;101439.03;10414297;28;20053;-61
2022/04/19 06:20:50;;;;;;;12.90;10.38;;;;;;;8.37;81.53;101438.72;10414497;28;20049;-61
2022/04/19 06:25:52;;;;;;;16.95;11.15;;;;;;;8.38;77.12;101435.19;10415033;28;20048;-61
2022/04/19 06:30:54;;;;;;;15.80;11.32;;;;;;;8.68;80.21;101431.50;10414172;28;20053;-61
2022/04/19 06:35:57;;;;;;;13.43;10.95;;;;;;;9.01;74.98;101429.31;10413786;28;20042;-61
2022/04/19 06:40:59;;;;;;;16.13;11.43;;;;;;;8.89;75.85;101433.28;10418549;28;20054;-62
2022/04/19 06:46:01;;;;;;;16.92;12.25;;;;;;;9.57;76.58;101427.84;10421500;28;20088;-62
2022/04/19 06:51:04;;;;;;;22.80;13.07;;;;;;;9.94;78.89;101433.25;10421787;28;20115;-62
2022/04/19 06:56:27;;;;;;;16.08;11.30;;;;;;;10.26;76.33;101438.78;10420539;28;20385;-62
2022/04/19 07:01:29;;;;;;;17.52;13.43;;;;;;;10.67;75.47;101442.09;10420790;28;20056;-62
2022/04/19 07:06:31;;;;;;;18.33;12.80;;;;;;;11.25;68.88;101442.84;10420572;28;20515;-62
2022/04/19 07:11:36;;;;;;;17.05;11.60;;;;;;;11.33;67.62;101443.25;10419896;28;20068;-62
2022/04/19 07:16:39;;;;;;;16.83;11.43;;;;;;;12.00;65.61;101443.38;10419067;28;20050;-62
2022/04/19 07:27:12;;;;;;;18.17;12.90;;;;;;;13.37;59.60;101444.50;10420258;28;20053;-63
2022/04/19 07:32:14;;;;;;;16.55;11.90;;;;;;;13.93;58.83;101447.28;10417250;28;20531;-63
2022/04/19 07:37:16;;;;;;;19.80;12.98;;;;;;;14.07;60.96;101454.38;10419693;28;20049;-64
2022/04/19 07:42:19;;;;;;;17.85;11.45;;;;;;;14.46;61.65;101454.59;10419142;28;20046;-64
2022/04/19 07:47:21;;;;;;;16.92;12.07;;;;;;;14.53;60.72;101458.53;10417093;28;20420;-64
2022/04/19 07:52:24;;;;;;;17.20;10.55;;;;;;;15.47;54.54;101452.44;10401529;28;20049;-64
2022/04/19 07:57:26;;;;;;;16.00;10.52;;;;;;;15.32;53.96;101456.94;10416525;28;20060;-63
2022/04/19 08:02:30;;;;;;;18.63;11.55;;;;;;;15.68;56.09;101452.75;10416799;28;20041;-64
2022/04/19 08:07:33;;;;;;;16.48;10.02;;;;;;;16.06;52.08;101446.63;10417627;28;20099;-65
2022/04/19 08:12:35;;;;;;;17.45;10.50;;;;;;;15.94;53.29;101450.16;10418092;28;20050;-65
2022/04/19 08:17:38;;;;;;;14.35;10.48;;;;;;;16.25;52.82;101442.69;10416462;28;20485;-65
2022/04/19 08:22:41;;;;;;;12.13;9.57;;;;;;;17.13;51.66;101442.50;10416590;28;20052;-65
2022/04/19 08:27:48;;;;;;;15.35;8.98;;;;;;;17.03;53.20;101439.69;10417133;28;20412;-65
2022/04/19 08:32:50;;;;;;;12.45;8.38;;;;;;;17.54;49.66;101438.50;10417257;28;20049;-65
2022/04/19 08:37:53;;;;;;;11.63;8.68;;;;;;;17.89;49.07;101437.59;10417256;28;20053;-65
2022/04/19 08:42:57;;;;;;;11.15;7.45;;;;;;;17.07;43.72;101440.28;10416100;28;20053;-65
2022/04/19 08:48:01;;;;;;;142.55;13.38;;;;;;;17.99;45.14;101437.72;10416497;28;20507;-65
2022/04/19 08:58:24;;;;;;;11.73;7.27;;;;;;;18.73;43.07;101443.25;10416005;28;20053;-66
2022/04/19 09:03:27;;;;;;;11.82;6.30;;;;;;;18.94;45.41;101432.69;10414852;28;20046;-66
2022/04/19 09:08:30;;;;;;;7.13;5.45;;;;;;;18.91;42.72;101438.28;10415184;28;20061;-65
2022/04/19 09:13:32;;;;;;;7.90;5.15;;;;;;;19.50;42.17;101433.38;10415129;28;20056;-66
2022/04/19 09:18:36;;;;;;;8.95;5.65;;;;;;;19.74;40.50;101432.28;10414382;28;20412;-66
2022/04/19 09:23:39;;;;;;;5.28;4.43;;;;;;;20.24;39.74;101427.03;10415497;28;20054;-66
2022/04/19 09:28:41;;;;;;;9.20;5.53;;;;;;;20.70;40.06;101425.59;10413974;28;20054;-66
2022/04/19 09:33:44;;;;;;;11.88;5.78;;;;;;;20.96;39.95;101417.91;10414181;28;20128;-66
2022/04/19 09:38:47;;;;;;;6.95;5.60;;;;;;;21.48;39.85;101420.19;10414396;28;20089;-66
2022/04/19 09:44:06;;;;;;;6.88;5.00;;;;;;;20.85;40.67;101415.38;10415696;28;20054;-66
2022/04/19 09:49:09;;;;;;;6.43;5.20;;;;;;;21.67;37.32;101410.47;10415588;28;20052;-66
2022/04/19 09:54:21;;;;;;;8.20;4.82;;;;;;;21.44;38.00;101408.13;10413928;28;20050;-66
2022/04/19 09:59:26;;;;;;;8.93;5.60;;;;;;;22.26;38.30;101408.38;10414355;28;20049;-66
2022/04/19 10:09:50;;;;;;;7.90;5.00;;;;;;;23.14;35.56;101386.38;10413557;28;20477;-66
2022/04/19 10:14:55;;;;;;;7.78;5.47;;;;;;;22.69;34.98;101398.81;10416707;28;20041;-67
2022/04/19 10:19:59;;;;;;;7.85;5.07;;;;;;;23.50;35.47;101391.59;10422310;28;20393;-67
2022/04/19 10:25:03;;;;;;;7.10;4.70;;;;;;;23.93;34.56;101388.00;10421500;28;20042;-67
2022/04/19 10:30:07;;;;;;;5.57;4.47;;;;;;;23.84;32.66;101380.94;10420393;28;20056;-67
2022/04/19 10:35:10;;;;;;;13.45;5.47;;;;;;;24.25;31.53;101386.41;10420349;28;20045;-67
2022/04/19 10:40:14;;;;;;;16.67;5.30;;;;;;;24.27;32.59;101375.56;10421997;28;20049;-67
2022/04/19 10:45:24;;;;;;;10.23;4.80;;;;;;;24.65;34.02;101378.66;10421375;28;20076;-68
2022/04/19 10:50:39;;;;;;;8.30;4.47;;;;;;;25.15;31.19;101376.75;10421411;28;20048;-67
2022/04/19 10:55:59;;;;;;;7.90;5.55;;;;;;;24.56;32.54;101376.97;10420060;28;20132;-68
2022/04/19 11:01:02;;;;;;;9.65;5.78;;;;;;;25.43;30.99;101363.84;10421194;28;20049;-67
2022/04/19 11:06:28;;;;;;;6.13;4.88;;;;;;;24.77;31.14;101358.56;10403800;28;20057;-68
2022/04/19 11:11:44;;;;;;;7.57;5.95;;;;;;;25.39;31.89;101360.66;10419789;28;20085;-68
2022/04/19 11:17:14;;;;;;;8.02;5.95;;;;;;;25.07;30.86;101360.72;10418693;28;20455;-68
2022/04/19 11:22:29;;;;;;;8.57;5.28;;;;;;;25.56;31.03;101360.63;10419561;28;20492;-67
2022/04/19 11:28:10;;;;;;;9.70;5.53;;;;;;;26.82;30.96;101356.88;10419703;28;20053;-67
2022/04/19 11:33:22;;;;;;;;;;;;;;;26.42;31.83;101361.53;10365519;28;20485;-67
2022/04/19 11:38:25;;;;;;;8.73;6.28;;;;;;;26.60;30.24;101346.97;10379043;28;19925;-67
2022/04/19 11:48:58;;;;;;;7.93;5.15;;;;;;;25.87;30.28;101346.41;10417672;28;20382;-67
2022/04/19 11:54:01;;;;;;;7.25;5.28;;;;;;;25.36;30.82;101347.63;10419260;28;20049;-68
2022/04/19 11:59:04;;;;;;;7.85;4.75;;;;;;;27.03;29.64;101340.06;10416970;28;20493;-67
2022/04/19 12:04:11;;;;;;;8.45;4.93;;;;;;;26.53;29.89;101338.81;10418106;28;20072;-68
2022/04/19 12:09:17;;;;;;;6.82;5.32;;;;;;;26.17;28.41;101336.69;10418069;28;20381;-68
2022/04/19 12:14:27;;;;;;;6.70;4.53;;;;;;;26.64;28.79;101333.00;10399791;28;20489;-68
2022/04/19 12:19:34;;;;;;;9.93;4.70;;;;;;;27.13;28.75;101326.31;10418037;28;20058;-67
2022/04/19 12:24:44;;;;;;;7.55;3.97;;;;;;;27.20;28.53;101329.13;10415968;28;20056;-68
2022/04/19 12:29:58;;;;;;;6.68;4.60;;;;;;;27.19;29.42;101325.59;10417819;28;20050;-67
2022/04/19 12:35:09;;;;;;;7.30;4.07;;;;;;;27.38;29.66;101326.91;10416218;28;20045;-68
2022/04/19 12:40:12;;;;;;;4.82;3.88;;;;;;;27.70;29.20;101319.47;10375346;28;20081;-68
2022/04/19 12:45:14;;;;;;;4.43;3.30;;;;;;;28.11;28.82;101315.38;10398812;28;20503;-68
2022/04/19 12:50:20;;;;;;;4.35;2.63;;;;;;;29.00;26.34;101311.38;10417180;28;20049;-68
2022/04/19 12:55:32;;;;;;;3.33;2.50;;;;;;;26.64;30.63;101308.03;10415871;28;20048;-67
2022/04/19 13:00:36;;;;;;;2.97;2.55;;;;;;;27.33;30.62;101307.00;10412360;28;20056;-68
2022/04/19 13:16:20;;;;;;;2.90;2.70;;;;;;;26.69;30.21;101303.75;10410625;28;20042;-67
2022/04/19 13:21:25;;;;;;;4.40;2.40;;;;;;;26.97;29.89;101295.09;10415779;28;20049;-67
2022/04/19 13:26:38;;;;;;;2.42;1.90;;;;;;;26.95;28.87;101294.47;10415826;28;20046;-67
2022/04/19 13:31:42;;;;;;;2.40;2.20;;;;;;;26.84;29.95;101285.00;10414007;28;20057;-68
2022/04/19 13:36:45;;;;;;;2.22;2.03;;;;;;;25.95;29.64;101285.53;10414849;28;20053;-67
2022/04/19 13:41:47;;;;;;;4.63;1.83;;;;;;;27.65;27.65;101281.53;10415124;28;20065;-67
2022/04/19 13:46:52;;;;;;;2.00;1.90;;;;;;;27.54;27.99;101287.44;10413714;28;20053;-68
2022/04/19 13:51:58;;;;;;;2.22;1.75;;;;;;;27.83;30.03;101289.19;10423367;28;20412;-68
2022/04/19 13:57:04;;;;;;;5.38;2.33;;;;;;;27.71;27.63;101286.16;10423247;28;20049;-68
2022/04/19 14:02:07;;;;;;;2.45;2.25;;;;;;;27.77;28.22;101288.13;10421980;28;20489;-68
2022/04/19 14:07:11;;;;;;;2.72;2.53;;;;;;;27.81;28.09;101280.50;10422541;28;20049;-67
2022/04/19 14:12:13;;;;;;;7.55;2.80;;;;;;;27.49;28.22;101287.13;10421422;28;20056;-64
2022/04/19 14:17:16;;;;;;;4.22;2.35;;;;;;;28.76;27.49;101278.47;10421752;28;20488;-64
2022/04/19 14:22:19;;;;;;;4.45;2.78;;;;;;;28.21;29.39;101288.16;10421405;28;20050;-64
2022/04/19 14:27:21;;;;;;;3.20;2.10;;;;;;;27.35;28.67;101281.63;10422715;28;20049;-64
2022/04/19 14:37:44;;;;;;;3.28;1.75;;;;;;;26.31;29.32;101282.25;10421733;28;20056;-64
2022/04/19 14:42:46;;;;;;;1.88;1.77;;;;;;;27.49;27.23;101290.69;10421066;28;20053;-64
2022/04/19 14:47:49;;;;;;;2.95;1.50;;;;;;;26.90;28.10;101278.06;10421964;28;20045;-64
2022/04/19 14:52:51;;;;;;;4.45;1.75;;;;;;;27.04;26.93;101281.78;10421165;28;20049;-64
2022/04/19 14:57:55;;;;;;;5.22;2.00;;;;;;;26.06;28.21;101295.03;10420734;28;20060;-63
2022/04/19 15:02:57;;;;;;;3.58;1.67;;;;;;;24.22;28.69;101290.44;10420759;28;20049;-64
2022/04/19 15:08:00;;;;;;;5.07;1.23;;;;;;;26.89;27.29;101279.06;10420554;28;20049;-64
2022/04/19 15:13:03;;;;;;;1.70;1.60;;;;;;;25.53;28.09;101280.53;10419297;28;20412;-63
2022/04/19 15:18:07;;;;;;;1.25;1.15;;;;;;;25.16;29.01;101282.81;10420849;28;20057;-64
2022/04/19 15:23:09;;;;;;;6.47;1.58;;;;;;;25.28;29.98;101283.31;10420051;28;20606;-63
2022/04/19 15:28:12;;;;;;;3.10;1.50;;;;;;;25.13;28.79;101283.19;10419854;28;20049;-63
2022/04/19 15:33:20;;;;;;;2.78;1.25;;;;;;;24.86;30.18;101273.69;10419949;28;20053;-63
2022/04/19 15:38:22;;;;;;;5.82;1.20;;;;;;;24.44;31.82;101272.03;10420036;28;20052;-63
2022/04/19 15:43:25;;;;;;;3.92;1.77;;;;;;;23.11;31.10;101269.19;10419224;28;20404;-63
2022/04/19 15:48:31;;;;;;;3.05;1.50;;;;;;;23.03;32.92;101272.59;10419029;28;20055;-63
2022/04/19 15:53:33;;;;;;;3.97;1.60;;;;;;;21.86;34.99;101276.31;10417992;28;20405;-63
2022/04/19 15:58:36;;;;;;;2.75;1.13;;;;;;;21.95;34.06;101285.22;10418508;28;20061;-63
2022/04/19 16:03:38;;;;;;;3.28;1.30;;;;;;;21.79;36.55;101286.72;10417930;28;20049;-63
2022/04/19 16:08:40;;;;;;;2.90;1.30;;;;;;;21.66;35.15;101279.06;10418515;28;20049;-63
2022/04/19 16:13:43;;;;;;;1.48;1.35;;;;;;;22.02;34.10;101275.63;10417277;28;20046;-63
2022/04/19 16:24:06;;;;;;;1.17;1.08;;;;;;;21.52;34.54;101274.25;10418312;28;20049;-63
2022/04/19 16:29:09;;;;;;;1.40;1.00;;;;;;;20.98;36.42;101279.34;10416544;28;20477;-62
2022/04/19 16:34:12;;;;;;;2.20;1.05;;;;;;;20.57;36.80;101276.03;10417815;28;20072;-62
2022/04/19 16:39:20;;;;;;;5.97;1.23;;;;;;;20.33;37.73;101274.63;10416833;28;20456;-62
2022/04/19 16:44:22;;;;;;;2.42;1.65;;;;;;;20.32;37.30;101275.59;10416620;28;20045;-62
2022/04/19 16:49:26;;;;;;;5.07;2.08;;;;;;;19.81;37.33;101280.19;10416812;28;20056;-62
2022/04/19 16:54:29;;;;;;;4.60;1.20;;;;;;;19.48;37.99;101284.81;10416043;28;20423;-62
2022/04/19 16:59:32;;;;;;;1.75;0.93;;;;;;;19.83;36.24;101295.97;10416276;28;20053;-63
2022/04/19 17:04:34;;;;;;;2.80;1.33;;;;;;;19.03;37.86;101289.63;10416463;28;20050;-63
2022/04/19 17:09:37;;;;;;;1.63;1.10;;;;;;;19.18;39.08;101293.63;10420228;23;20050;31
2022/04/19 17:14:43;;;;;;;3.00;1.40;;;;;;;19.05;38.26;101280.56;10414729;28;20077;-66
2022/04/19 17:19:45;;;;;;;1.27;1.15;;;;;;;18.81;38.53;101290.56;10415825;28;20475;-66
2022/04/19 17:24:47;;;;;;;7.45;1.20;;;;;;;18.39;40.15;101296.69;10414899;28;20049;-66
2022/04/19 17:29:50;;;;;;;4.65;1.35;;;;;;;18.27;41.18;101298.53;10415819;28;20049;-66
2022/04/19 17:34:53;;;;;;;6.88;2.67;;;;;;;18.06;41.44;101300.31;10415951;28;20077;-66
2022/04/19 17:39:55;;;;;;;4.07;1.75;;;;;;;17.64;41.55;101300.94;10414349;28;20053;-66
2022/04/19 17:44:58;;;;;;;3.53;1.30;;;;;;;17.36;42.71;101297.81;10415475;28;20060;-66
2022/04/19 18:00:42;;;;;;;3.28;1.38;;;;;;;16.83;43.10;101311.56;10415282;28;20053;-66
2022/04/19 18:05:45;;;;;;;4.50;1.38;;;;;;;16.37;44.61;101324.72;10414565;28;20045;-66
2022/04/19 18:10:47;;;;;;;3.55;1.55;;;;;;;16.37;44.95;101325.53;10414396;28;20065;-66
2022/04/19 18:15:51;;;;;;;6.20;1.80;;;;;;;16.13;46.40;101333.47;10413163;28;20050;-65
2022/04/19 18:20:54;;;;;;;3.97;1.80;;;;;;;15.71;47.25;101336.38;10414679;28;20515;-65
2022/04/19 18:25:58;;;;;;;9.02;1.85;;;;;;;15.63;49.32;101351.09;10414035;28;20484;-64
2022/04/19 18:31:01;;;;;;;3.85;1.50;;;;;;;15.27;51.32;101352.69;10429053;28;20045;-64
2022/04/19 18:36:04;;;;;;;1.92;1.40;;;;;;;15.03;52.35;101362.16;10417428;28;20485;-64
2022/04/19 18:41:07;;;;;;;2.65;1.73;;;;;;;14.61;54.92;101363.22;10420813;28;20049;-65
2022/04/19 18:46:10;;;;;;;2.38;2.03;;;;;;;14.42;55.73;101381.97;10421315;28;20046;-64
2022/04/19 18:51:14;;;;;;;7.15;2.15;;;;;;;14.15;56.84;101393.31;10420735;28;20050;-65
2022/04/19 18:56:17;;;;;;;4.78;2.00;;;;;;;14.08;56.95;101399.91;10405125;28;20051;-64
2022/04/19 19:01:20;;;;;;;5.95;1.67;;;;;;;14.24;55.29;101402.41;10416271;28;20046;-64
2022/04/19 19:06:22;;;;;;;2.60;1.92;;;;;;;13.96;56.09;101406.78;10420557;28;20565;-64
2022/04/19 19:11:25;;;;;;;7.07;2.10;;;;;;;13.92;55.98;101415.81;10413963;28;20049;-64
2022/04/19 19:16:27;;;;;;;13.10;2.22;;;;;;;13.56;57.91;101422.38;10408788;28;20049;-64
2022/04/19 19:21:30;;;;;;;7.18;1.80;;;;;;;13.47;59.03;101431.66;10413881;28;20057;-64
2022/04/19 19:26:33;;;;;;;3.67;1.70;;;;;;;13.23;60.79;101430.44;10412683;28;20493;-64
2022/04/19 19:31:36;;;;;;;6.82;2.17;;;;;;;13.23;59.94;101430.44;10411774;28;20057;-64
2022/04/19 19:36:39;;;;;;;5.40;2.00;;;;;;;13.19;60.32;101437.66;10412842;28;20095;-64
2022/04/19 19:41:42;;;;;;;4.47;1.83;;;;;;;13.14;60.23;101450.22;10411298;28;20064;-64
2022/04/19 19:46:45;;;;;;;2.80;2.17;;;;;;;12.98;60.66;101452.91;10412018;28;20042;-64
2022/04/19 19:51:48;;;;;;;4.85;1.60;;;;;;;12.61;63.97;101454.97;10410416;28;20087;-64
2022/04/19 19:56:51;;;;;;;7.53;1.98;;;;;;;12.34;66.46;101462.56;10411457;28;20053;-64
2022/04/19 20:01:53;;;;;;;5.22;2.00;;;;;;;11.88;69.68;101464.06;10411070;28;20053;-64
2022/04/19 20:06:55;;;;;;;5.13;1.75;;;;;;;11.87;67.23;101470.25;10402553;28;20108;-64
2022/04/19 20:11:58;;;;;;;2.03;1.92;;;;;;;11.69;67.20;101460.69;10401613;28;20057;-63
2022/04/19 20:17:00;;;;;;;3.97;2.50;;;;;;;11.30;69.08;101464.41;10409136;28;20060;-63
2022/04/19 20:22:03;;;;;;;7.03;2.30;;;;;;;11.31;67.15;101468.72;10425768;28;20505;-63
2022/04/19 20:27:05;;;;;;;6.45;1.95;;;;;;;11.26;67.00;101474.22;10410858;28;20037;-63
2022/04/19 20:32:08;;;;;;;2.85;1.80;;;;;;;10.79;70.35;101482.56;10411402;28;20057;-63
2022/04/19 20:37:10;;;;;;;5.65;1.70;;;;;;;10.80;70.18;101486.91;10410184;28;20065;-63
2022/04/19 20:42:12;;;;;;;2.05;1.50;;;;;;;10.63;70.94;101492.09;10410567;28;20053;-63
2022/04/19 20:52:39;;;;;;;3.35;1.98;;;;;;;10.38;72.36;101504.53;10422955;28;20057;-63
2022/04/19 20:57:41;;;;;;;3.63;1.73;;;;;;;10.26;72.92;101510.28;10408443;28;20053;-63
2022/04/19 21:02:44;;;;;;;2.85;2.22;;;;;;;10.07;75.08;101506.78;10408964;28;20496;-63
2022/04/19 21:07:46;;;;;;;3.33;2.55;;;;;;;10.03;75.21;101506.06;10408478;28;20045;-63
2022/04/19 21:12:49;;;;;;;6.25;1.92;;;;;;;9.85;76.80;101507.69;10408773;28;20061;-63
2022/04/19 21:17:52;;;;;;;3.60;2.05;;;;;;;9.81;76.10;101512.22;10409350;28;20049;-63
2022/04/19 21:22:54;;;;;;;6.22;2.20;;;;;;;9.79;76.11;101514.06;10394726;28;20133;-63
2022/04/19 21:27:57;;;;;;;2.85;2.10;;;;;;;9.74;76.05;101513.41;10404798;28;20049;-63
2022/04/19 21:32:59;;;;;;;2.10;1.90;;;;;;;9.80;76.49;101517.50;10416044;28;20053;-63
2022/04/19 21:38:01;;;;;;;3.28;2.70;;;;;;;9.48;78.59;101520.59;10415553;28;20049;-63
2022/04/19 21:43:04;;;;;;;4.13;2.25;;;;;;;9.40;78.92;101520.03;10414988;28;20053;-63
2022/04/19 21:48:06;;;;;;;5.18;2.50;;;;;;;9.34;80.15;101516.81;10414923;28;20049;-63
2022/04/19 21:53:09;;;;;;;5.45;2.40;;;;;;;9.28;79.89;101517.94;10414928;28;20081;-63
2022/04/19 21:58:11;;;;;;;5.57;2.80;;;;;;;9.15;80.57;101521.97;10414513;28;20049;-63
2022/04/19 22:03:13;;;;;;;4.10;2.70;;;;;;;9.32;81.70;101522.13;10414045;28;20404;-63
2022/04/19 22:08:16;;;;;;;3.65;2.50;;;;;;;9.33;79.13;101520.34;10415383;28;20049;-63
2022/04/19 22:13:18;;;;;;;3.03;2.72;;;;;;;9.05;82.50;101530.13;10422395;28;20073;-63
2022/04/19 22:18:20;;;;;;;4.93;2.85;;;;;;;8.86;82.81;101530.00;10422917;28;20046;-63
2022/04/19 22:23:24;;;;;;;4.82;2.70;;;;;;;8.88;83.53;101537.78;10422755;28;20052;-63
2022/04/19 22:28:27;;;;;;;3.28;2.70;;;;;;;8.76;84.92;101541.72;10421977;28;20045;-63
2022/04/19 22:33:30;;;;;;;4.10;3.47;;;;;;;8.83;84.19;101539.72;10422252;28;20060;-62
2022/04/19 22:38:34;;;;;;;3.97;3.03;;;;;;;8.71;84.43;101541.03;10422335;28;20477;-63
2022/04/19 22:43:36;;;;;;;4.90;3.63;;;;;;;8.64;83.89;101547.38;10421974;28;20053;-63
2022/04/19 22:48:39;;;;;;;3.92;2.90;;;;;;;8.52;86.48;101540.88;10421971;28;20056;-63
2022/04/19 22:53:41;;;;;;;6.30;3.17;;;;;;;8.36;86.50;101551.84;10420065;28;20079;-63
2022/04/19 22:58:44;;;;;;;4.97;3.47;;;;;;;8.39;86.73;101553.50;10420960;28;20528;-63
2022/04/19 23:03:46;;;;;;;3.88;2.83;;;;;;;8.54;84.44;101547.75;10421300;28;20076;-62
2022/04/19 23:08:49;;;;;;;4.65;3.28;;;;;;;8.34;85.40;101563.25;10420838;28;20052;-62
2022/04/19 23:13:51;;;;;;;6.63;3.70;;;;;;;8.25;86.60;101566.16;10420031;28;20404;-62
2022/04/19 23:18:53;;;;;;;5.15;3.05;;;;;;;8.02;90.35;101564.34;10420766;28;20045;-62
2022/04/19 23:23:55;;;;;;;5.57;3.35;;;;;;;7.99;90.07;101568.78;10419273;28;20416;-63
2022/04/19 23:28:58;;;;;;;3.75;2.72;;;;;;;8.16;87.61;101562.13;10420025;28;20056;-62
2022/04/19 23:34:00;;;;;;;3.35;3.05;;;;;;;7.96;89.92;101566.28;10419211;28;20408;-62
2022/04/19 23:39:05;;;;;;;6.43;3.33;;;;;;;7.99;90.45;101558.34;10420061;28;20042;-63
2022/04/19 23:44:07;;;;;;;3.88;3.10;;;;;;;7.76;91.58;101572.16;10419732;28;20049;-62
2022/04/19 23:49:10;;;;;;;4.32;3.63;;;;;;;7.60;93.56;101570.97;10419077;28;20401;-63
2022/04/19 23:54:13;;;;;;;8.15;3.65;;;;;;;7.53;94.18;101564.25;10418546;28;20378;-62
2022/04/19 23:59:15;;;;;;;5.57;3.80;;;;;;;7.52;96.16;101562.56;10418537;28;20480;-62
